ENBN/BNN METAR and TAF weather

Enter ICAO airport designator
Station Type Date Time Source
ENBN METAR 2020/01/22 15:20 UTC NOAA

ENBN 221520Z 31011G22KT 280V350 9999 VCSH FEW015CB SCT027 BKN045 04/M03 Q1021


Station Type Date Time Source
ENBN Decoded METAR 2020/01/22 15:20 UTC NOAA

Bronnoysund / Bronnoy, Norway (ENBN) 65-28N 012-13E 9M
Jan 22, 2020 - 10:20 AM EST / 2020.01.22 1520 UTC
Wind: from the NW (310 degrees) at 13 MPH (11 KT) gusting to 25 MPH (22 KT) (direction variable):0
Visibility: greater than 7 mile(s):0
Sky conditions: mostly cloudy
Weather: showers in the vicinity; Cumulonimbus clouds observed
Temperature: 39 F (4 C)
Dew Point: 26 F (-3 C)
Relative Humidity: 60%
Pressure (altimeter): 30.15 in. Hg (1021 hPa)
ob: ENBN 221520Z 31011G22KT 280V350 9999 VCSH FEW015CB SCT027 BKN045 04/M03 Q1021
cycle: 15

Station Type Date Time Source
ENBN TAF 2011/03/27 18:12 UTC NOAA

TAF TAF ENBN 261700Z 2618/2718 CNL

Example: see airport list